Daniela Morace — IJAJ2 — position and weather

sailwx.info

Track history (hours):
 
Tides and Currents Weather Stations Pressure Air Temp Water Temp Dewpoint Dewpoint Depression Visibility Wind Speed Wind Dir Waves Ship Positions

Daniela Morace

Last reported at 2015-May-30 14:33 UTC. Time now 2015-May-30 14:39 UTC.
Position N 38°27' E 014°59'.

Length 36 m; draft 2.4 m.

Type: Ship. MMSI: 247297500.

Date/timePositionNaut miles runAvg speedWind from/ knotsBaromVisibWave heightAir tempDewpointWater temp
2015-May-30 14:33N 38°27' E 014°59'1717.4
2015-May-30 13:33N 38°21' E 015°20'1514.8
2015-May-30 12:33N 38°12' E 015°34'6 6.1
2015-May-30 11:33N 38°07' E 015°39'6 4.7
2015-May-30 10:21N 38°11' E 015°34'20 0.5
2015-May-28 16:27N 38°20' E 015°10'12 5.2
2015-May-28 14:05N 38°28' E 014°58'813.2
2015-May-28 13:31N 38°25' E 015°07'2526.6
2015-May-28 12:34N 38°18' E 015°38'8 7.6
2015-May-28 11:33N 38°11' E 015°37'3 2.8
2015-May-28 10:34N 38°11' E 015°34'0 0.0
2015-May-28 09:33N 38°11' E 015°34'0 0.0
2015-May-28 08:33N 38°11' E 015°34'6 5.7
2015-May-28 07:33N 38°07' E 015°39'7 7.0
2015-May-28 06:34N 38°14' E 015°36'2522.2
2015-May-28 05:26N 38°25' E 015°08'8 0.7
2015-May-27 18:26N 38°28' E 014°58'1415.5
2015-May-27 17:33N 38°20' E 015°12'6 6.2
2015-May-27 16:33N 38°15' E 015°17'2019.8
2015-May-27 15:31N 38°28' E 014°57'3 2.7
2015-May-27 14:25N 38°31' E 014°58'9 9.8
2015-May-27 13:33N 38°24' E 015°05'2726.7
2015-May-27 12:33N 38°18' E 015°38'8 7.8
2015-May-27 11:34N 38°10' E 015°38'3 3.4
2015-May-27 10:33N 38°11' E 015°34'0 0.0
2015-May-27 09:33N 38°11' E 015°34'0 0.0
2015-May-27 08:34N 38°11' E 015°34'6 5.8
2015-May-27 07:33N 38°07' E 015°39'8 8.0
2015-May-27 06:33N 38°15' E 015°39'2825.7
2015-May-27 05:28N 38°26' E 015°06'6 0.5
2015-May-26 18:31N 38°29' E 014°59'1212.9
2015-May-26 17:33N 38°20' E 015°10'6 6.1
2015-May-26 16:33N 38°16' E 015°16'1919.1
2015-May-26 15:32N 38°28' E 014°57'3 3.0
2015-May-26 14:26N 38°32' E 014°58'910.5
2015-May-26 13:33N 38°25' E 015°05'2727.3
2015-May-26 12:33N 38°18' E 015°39'6 6.4
2015-May-26 11:33N 38°11' E 015°37'2 2.5
2015-May-26 10:33N 38°11' E 015°34'0 0.0
2015-May-26 09:33N 38°11' E 015°34'0 0.0
2015-May-26 08:33N 38°11' E 015°34'6 5.6
2015-May-26 07:33N 38°08' E 015°39'6 6.1
2015-May-26 06:34N 38°12' E 015°34'2019.8
2015-May-26 05:33N 38°24' E 015°14'14 1.3
2015-May-25 18:31N 38°31' E 014°58'1516.2
2015-May-25 17:33N 38°20' E 015°11'3 3.4
2015-May-25 16:32N 38°18' E 015°14'1717.4
2015-May-25 15:33N 38°28' E 014°58'3 3.1
2015-May-25 14:34N 38°31' E 014°58'1413.9
2015-May-25 13:34N 38°22' E 015°11'2323.2
2015-May-25 12:34N 38°15' E 015°39'6 5.9
2015-May-25 11:33N 38°09' E 015°38'4 4.0
2015-May-25 10:33N 38°11' E 015°34'0 0.3
2015-May-25 09:33N 38°12' E 015°33'0 0.3
2015-May-25 08:33N 38°11' E 015°34'6 5.7
2015-May-25 07:34N 38°07' E 015°39'8 8.3
2015-May-25 06:34N 38°16' E 015°40'2725.9
2015-May-25 05:32N 38°26' E 015°08'10 0.9
2015-May-24 18:30N 38°31' E 014°58'1314.2
2015-May-24 17:33N 38°21' E 015°09'9 9.1
2015-May-24 16:33N 38°14' E 015°16'21 8.9
2015-May-24 14:13N 38°28' E 014°58'812.2
2015-May-24 13:33N 38°24' E 015°06'2625.9
2015-May-24 12:34N 38°18' E 015°38'7 6.6
2015-May-24 11:34N 38°11' E 015°37'3 2.7
2015-May-24 10:33N 38°11' E 015°34'0 0.0
2015-May-24 09:33N 38°11' E 015°34'0 0.3
2015-May-24 08:33N 38°12' E 015°33'5 5.2
2015-May-24 07:34N 38°08' E 015°38'10 9.7
2015-May-24 06:33N 38°18' E 015°39'2928.2
2015-May-24 05:32N 38°26' E 015°04'4 0.4
2015-May-23 18:31N 38°27' E 014°59'1812.7
2015-May-23 17:04N 38°13' E 015°15'1017.3
2015-May-23 16:29N 38°21' E 015°07'10 5.0
2015-May-23 14:32N 38°28' E 014°58'1414.1
2015-May-23 13:33N 38°22' E 015°14'2121.1
2015-May-23 12:34N 38°15' E 015°39'5 5.5
2015-May-23 11:33N 38°11' E 015°34'0 0.0
2015-May-23 10:34N 38°11' E 015°34'0 0.0
2015-May-23 09:33N 38°11' E 015°34'0 0.0
2015-May-23 08:33N 38°11' E 015°34'6 5.7
2015-May-23 07:33N 38°07' E 015°39'8 7.9
2015-May-23 06:34N 38°15' E 015°39'2323.2
2015-May-23 05:33N 38°24' E 015°12'1110.6
2015-May-23 04:33N 38°25' E 014°58'6 0.7
2015-May-22 19:11N 38°32' E 014°58'6 9.8
2015-May-22 18:33N 38°25' E 014°58'1815.5
2015-May-22 17:24N 38°13' E 015°15'2 0.3
2015-May-22 10:33N 38°14' E 015°17'  
Track history (hours):
 
Tides and Currents Weather Stations Pressure Air Temp Water Temp Dewpoint Dewpoint Depression Visibility Wind Speed Wind Dir Waves Ship Positions

Daniela Morace

Last reported at 2015-May-30 14:33 UTC. Time now 2015-May-30 14:39 UTC.
Position N 38°27' E 014°59'.

Length 36 m; draft 2.4 m.

Type: Ship. MMSI: 247297500.

Date/timePositionNaut miles runAvg speedWind from/ knotsBaromVisibWave heightAir tempDewpointWater temp
2015-May-30 14:33N 38°27' E 014°59'1717.4
2015-May-30 13:33N 38°21' E 015°20'1514.8
2015-May-30 12:33N 38°12' E 015°34'6 6.1
2015-May-30 11:33N 38°07' E 015°39'6 4.7
2015-May-30 10:21N 38°11' E 015°34'20 0.5
2015-May-28 16:27N 38°20' E 015°10'12 5.2
2015-May-28 14:05N 38°28' E 014°58'813.2
2015-May-28 13:31N 38°25' E 015°07'2526.6
2015-May-28 12:34N 38°18' E 015°38'8 7.6
2015-May-28 11:33N 38°11' E 015°37'3 2.8
2015-May-28 10:34N 38°11' E 015°34'0 0.0
2015-May-28 09:33N 38°11' E 015°34'0 0.0
2015-May-28 08:33N 38°11' E 015°34'6 5.7
2015-May-28 07:33N 38°07' E 015°39'7 7.0
2015-May-28 06:34N 38°14' E 015°36'2522.2
2015-May-28 05:26N 38°25' E 015°08'8 0.7
2015-May-27 18:26N 38°28' E 014°58'1415.5
2015-May-27 17:33N 38°20' E 015°12'6 6.2
2015-May-27 16:33N 38°15' E 015°17'2019.8
2015-May-27 15:31N 38°28' E 014°57'3 2.7
2015-May-27 14:25N 38°31' E 014°58'9 9.8
2015-May-27 13:33N 38°24' E 015°05'2726.7
2015-May-27 12:33N 38°18' E 015°38'8 7.8
2015-May-27 11:34N 38°10' E 015°38'3 3.4
2015-May-27 10:33N 38°11' E 015°34'0 0.0
2015-May-27 09:33N 38°11' E 015°34'0 0.0
2015-May-27 08:34N 38°11' E 015°34'6 5.8
2015-May-27 07:33N 38°07' E 015°39'8 8.0
2015-May-27 06:33N 38°15' E 015°39'2825.7
2015-May-27 05:28N 38°26' E 015°06'6 0.5
2015-May-26 18:31N 38°29' E 014°59'1212.9
2015-May-26 17:33N 38°20' E 015°10'6 6.1
2015-May-26 16:33N 38°16' E 015°16'1919.1
2015-May-26 15:32N 38°28' E 014°57'3 3.0
2015-May-26 14:26N 38°32' E 014°58'910.5
2015-May-26 13:33N 38°25' E 015°05'2727.3
2015-May-26 12:33N 38°18' E 015°39'6 6.4
2015-May-26 11:33N 38°11' E 015°37'2 2.5
2015-May-26 10:33N 38°11' E 015°34'0 0.0
2015-May-26 09:33N 38°11' E 015°34'0 0.0
2015-May-26 08:33N 38°11' E 015°34'6 5.6
2015-May-26 07:33N 38°08' E 015°39'6 6.1
2015-May-26 06:34N 38°12' E 015°34'2019.8
2015-May-26 05:33N 38°24' E 015°14'14 1.3
2015-May-25 18:31N 38°31' E 014°58'1516.2
2015-May-25 17:33N 38°20' E 015°11'3 3.4
2015-May-25 16:32N 38°18' E 015°14'1717.4
2015-May-25 15:33N 38°28' E 014°58'3 3.1
2015-May-25 14:34N 38°31' E 014°58'1413.9
2015-May-25 13:34N 38°22' E 015°11'2323.2
2015-May-25 12:34N 38°15' E 015°39'6 5.9
2015-May-25 11:33N 38°09' E 015°38'4 4.0
2015-May-25 10:33N 38°11' E 015°34'0 0.3
2015-May-25 09:33N 38°12' E 015°33'0 0.3
2015-May-25 08:33N 38°11' E 015°34'6 5.7
2015-May-25 07:34N 38°07' E 015°39'8 8.3
2015-May-25 06:34N 38°16' E 015°40'2725.9
2015-May-25 05:32N 38°26' E 015°08'10 0.9
2015-May-24 18:30N 38°31' E 014°58'1314.2
2015-May-24 17:33N 38°21' E 015°09'9 9.1
2015-May-24 16:33N 38°14' E 015°16'21 8.9
2015-May-24 14:13N 38°28' E 014°58'812.2
2015-May-24 13:33N 38°24' E 015°06'2625.9
2015-May-24 12:34N 38°18' E 015°38'7 6.6
2015-May-24 11:34N 38°11' E 015°37'3 2.7
2015-May-24 10:33N 38°11' E 015°34'0 0.0
2015-May-24 09:33N 38°11' E 015°34'0 0.3
2015-May-24 08:33N 38°12' E 015°33'5 5.2
2015-May-24 07:34N 38°08' E 015°38'10 9.7
2015-May-24 06:33N 38°18' E 015°39'2928.2
2015-May-24 05:32N 38°26' E 015°04'4 0.4
2015-May-23 18:31N 38°27' E 014°59'1812.7
2015-May-23 17:04N 38°13' E 015°15'1017.3
2015-May-23 16:29N 38°21' E 015°07'10 5.0
2015-May-23 14:32N 38°28' E 014°58'1414.1
2015-May-23 13:33N 38°22' E 015°14'2121.1
2015-May-23 12:34N 38°15' E 015°39'5 5.5
2015-May-23 11:33N 38°11' E 015°34'0 0.0
2015-May-23 10:34N 38°11' E 015°34'0 0.0
2015-May-23 09:33N 38°11' E 015°34'0 0.0
2015-May-23 08:33N 38°11' E 015°34'6 5.7
2015-May-23 07:33N 38°07' E 015°39'8 7.9
2015-May-23 06:34N 38°15' E 015°39'2323.2
2015-May-23 05:33N 38°24' E 015°12'1110.6
2015-May-23 04:33N 38°25' E 014°58'6 0.7
2015-May-22 19:11N 38°32' E 014°58'6 9.8
2015-May-22 18:33N 38°25' E 014°58'1815.5
2015-May-22 17:24N 38°13' E 015°15'2 0.3
2015-May-22 10:33N 38°14' E 015°17'  

Dump ship's entire track history